Terminal Aerodrome Forecast
Issued by NWS

Home | Current Version | Previous Version | Text Only | Print | Product List | Glossary On
Versions: 1 2 3 4 5 6 7 8 9 10 11 12 13 14 15 16
000
FTUS42 TJSJ 302300
TAFJSJ
TAF
TJSJ 302335Z 3100/3124 32007KT P6SM VCTS SCT022CB BKN050
      TEMPO 3100/3102 VRB12G19KT 3SM TSRA BKN022CB OVC050
     FM310230 11005KT P6SM FEW025 SCT040 SCT120
     FM311230 22008KT P6SM FEW030 SCT050
     FM311730 VRB10KT P6SM VCTS SCT025CB BKN050=

USA.gov is the U.S. government's official web portal to all federal, state and local government web resources and services.